Dodgeville, WI (53533)

10:27 AM CST on February 12, 2016 (GMT -0600)
KWIDODGE2 | | Change Station
CLOSE
Current Station
Personal Weather Station
Location: Dodgeville, WI
Elevation: 1240 ft
Nearby Weather Stations
Active Advisory: Wind Chill Advisory

Elev 1240 ft 42.96 °N, 90.13 °W | Updated 4 minutes ago

Overcast
Overcast
15.5 °F
Feels Like 15 °F
N
3.0
Wind Variable Wind from NE
Gusts 7.0 mph

Today
High -- | Low -- °F
--% Chance of Precip.
Yesterday
High -- | Low -- °F
Precip. -- in
Pressure 30.19 in
Visibility 10.0 miles
Clouds Scattered Clouds 2100 ft
Windchill 15 °F
Dew Point 9 °F
Humidity 76%
Rainfall 0.00 in
Snow Depth Not available.
7:02 AM 5:27 PM
Waxing Crescent, 21% visible
METAR KMRJ 121615Z AUTO 30011G18KT 10SM SCT021 M08/M13 A3019 RMK AO2
Pressure 30.19 in
Visibility 10.0 miles
Clouds Scattered Clouds 2100 ft
Windchill 15 °F
Dew Point 9 °F
Humidity 76%
Rainfall 0.00 in
Snow Depth Not available.
7:02 AM 5:27 PM
Waxing Crescent, 21% visible
METAR KMRJ 121615Z AUTO 30011G18KT 10SM SCT021 M08/M13 A3019 RMK AO2

10-Day Weather Forecast

Almanac

Astronomy

Feb. 12, 2016 Rise Set
Actual Time
Civil Twilight
Nautical Twilight
Astronomical Twilight
Moon
Length of Visible Light
Length of Day
Tomorrow will be .
, % of the Moon is Illuminated

Today's Extremes

State Highs State Lows

Community

WunderPhotos

Upload Photos

1,892,350 photos uploaded!

WunderBlog® & News

Nearby

Air Quality

  Air Quality AQ Index Pollutant
Not available.

Snow Depth

Station Depth Elevation

Earthquake Activity

City Distance Mag. Time & Date
Minimum magnitude displayed is 2.5.

Coastal Water Temperatures

Place Temperature

Stations

Nearby Weather Stations

Station Location Temp. Windchill Dew Point Humidity Wind Precip. Elev Updated Type
                   

Watches & Warnings

Wind Chill Advisory
Issued: 3:27 AM CST Feb. 12, 2016 – National Weather Service

... Wind Chill Advisory in effect from midnight tonight to 9 am
CST Saturday...

The National Weather Service in Milwaukee/Sullivan has issued a
Wind Chill Advisory... which is in effect from midnight tonight to
9 am CST Saturday.

* Tonight through early Saturday.

* Wind chill values of 20 to 25 degrees below zero are expected.

Precautionary/preparedness actions...

A Wind Chill Advisory means that very cold air and strong winds
will combine to generate low wind chills. This will result in
frost bite and lead to hypothermia if precautions are not taken.
If you must venture outdoors... make sure you wear a hat and
gloves.



Halbach